^^
Saratoga-Weather Station Historical Data
Daily Summary for May 25, 2021 Units:  Both    English   Metric
Daily Weekly Monthly Yearly Custom
  High: Low: Average:
Temperature: 39.6 °F /  4.2 °C 29.7 °F /  -1.3 °C 35.8 °F /  2.1 °C
Dew Point: 34.9 °F /  1.6 °C 28.2 °F /  -2.1 °C 32.4 °F /  0.2 °C
Humidity: 96% 77% 88%
Wind Speed: 7mph /  11.3km/h - 0.4mph /  0.6km/h
Wind Gust: 10mph /  16.1km/h - -
Wind- - WSW
Pressure: 29.9 in /  1012.9 hPa 29.8 in /  1009.5 hPa -
Precipitation: 0 in /  0.0 mm    
Historical Graphs
 
 
Tabular Data for May 25, 2021
Time Temperature Dew Point Pressure Wind Wind Speed Wind Gust Humidity Rainfall Rate (Hourly) solar
00:02 29.8 °F /  -1.2 °C 28.4 °F /  -2 °C 29.9in /  1012.9hPa Calm     94% 0in /  0.0mm 0 W/m2
00:07 29.8 °F /  -1.2 °C 28.4 °F /  -2 °C 29.9in /  1012.9hPa Calm     94% 0in /  0.0mm 0 W/m2
00:12 29.7 °F /  -1.3 °C 28.2 °F /  -2.1 °C 29.9in /  1012.9hPa Calm     94% 0in /  0.0mm 0 W/m2
00:17 29.8 °F /  -1.2 °C 28.6 °F /  -1.9 °C 29.9in /  1012.9hPa Calm     95% 0in /  0.0mm 0 W/m2
00:22 29.8 °F /  -1.2 °C 28.6 °F /  -1.9 °C 29.9in /  1012.9hPa Calm     95% 0in /  0.0mm 0 W/m2
00:27 29.8 °F /  -1.2 °C 28.6 °F /  -1.9 °C 29.9in /  1012.9hPa Calm     95% 0in /  0.0mm 0 W/m2
00:32 29.7 °F /  -1.3 °C 28.4 °F /  -2 °C 29.9in /  1012.9hPa Calm     95% 0in /  0.0mm 0 W/m2
00:37 29.7 °F /  -1.3 °C 28.2 °F /  -2.1 °C 29.9in /  1012.9hPa Calm     94% 0in /  0.0mm 0 W/m2
00:42 29.7 °F /  -1.3 °C 28.4 °F /  -2 °C 29.9in /  1012.9hPa Calm     95% 0in /  0.0mm 0 W/m2
00:47 29.7 °F /  -1.3 °C 28.4 °F /  -2 °C 29.9in /  1012.9hPa Calm     95% 0in /  0.0mm 0 W/m2
00:52 29.8 °F /  -1.2 °C 28.6 °F /  -1.9 °C 29.9in /  1012.9hPa ESE 0.9mph /  1.4km/h 2mph /  3.2km/h 95% 0in /  0.0mm 0 W/m2
00:57 30 °F /  -1.1 °C 28.8 °F /  -1.8 °C 29.9in /  1012.9hPa Calm     95% 0in /  0.0mm 0 W/m2
01:02 30 °F /  -1.1 °C 28.8 °F /  -1.8 °C 29.9in /  1012.9hPa Calm     95% 0in /  0.0mm 0 W/m2
01:07 30 °F /  -1.1 °C 28.8 °F /  -1.8 °C 29.9in /  1012.9hPa Calm     95% 0in /  0.0mm 0 W/m2
01:12 30 °F /  -1.1 °C 28.8 °F /  -1.8 °C 29.9in /  1012.9hPa Calm     95% 0in /  0.0mm 0 W/m2
01:17 30.2 °F /  -1 °C 28.9 °F /  -1.7 °C 29.9in /  1012.5hPa Calm     95% 0in /  0.0mm 0 W/m2
01:22 30.2 °F /  -1 °C 28.9 °F /  -1.7 °C 29.9in /  1012.5hPa Calm     95% 0in /  0.0mm 0 W/m2
01:27 30.2 °F /  -1 °C 28.9 °F /  -1.7 °C 29.9in /  1012.5hPa Calm     95% 0in /  0.0mm 0 W/m2
01:32 30.2 °F /  -1 °C 28.9 °F /  -1.7 °C 29.9in /  1012.5hPa Calm     95% 0in /  0.0mm 0 W/m2
01:47 30 °F /  -1.1 °C 28.8 °F /  -1.8 °C 29.9in /  1011.9hPa Calm     95% 0in /  0.0mm 0 W/m2
01:52 30.2 °F /  -1 °C 28.9 °F /  -1.7 °C 29.9in /  1011.9hPa Calm   1mph /  1.6km/h 95% 0in /  0.0mm 0 W/m2
02:02 30 °F /  -1.1 °C 28.8 °F /  -1.8 °C 29.9in /  1011.9hPa Calm     95% 0in /  0.0mm 0 W/m2
02:07 29.8 °F /  -1.2 °C 28.6 °F /  -1.9 °C 29.9in /  1011.9hPa Calm     95% 0in /  0.0mm 0 W/m2
02:12 29.8 °F /  -1.2 °C 28.6 °F /  -1.9 °C 29.9in /  1011.9hPa ESE 0.9mph /  1.4km/h 2mph /  3.2km/h 95% 0in /  0.0mm 0 W/m2
02:17 29.8 °F /  -1.2 °C 28.6 °F /  -1.9 °C 29.9in /  1011.9hPa Calm   1mph /  1.6km/h 95% 0in /  0.0mm 0 W/m2
02:22 30.2 °F /  -1 °C 29.1 °F /  -1.6 °C 29.9in /  1011.9hPa Calm     96% 0in /  0.0mm 0 W/m2
02:27 30.6 °F /  -0.8 °C 29.5 °F /  -1.4 °C 29.9in /  1011.9hPa Calm     96% 0in /  0.0mm 0 W/m2
02:32 30.9 °F /  -0.6 °C 29.8 °F /  -1.2 °C 29.9in /  1011.9hPa Calm     96% 0in /  0.0mm 0 W/m2
02:37 31.3 °F /  -0.4 °C 30.2 °F /  -1 °C 29.9in /  1011.9hPa Calm     96% 0in /  0.0mm 0 W/m2
02:42 31.5 °F /  -0.3 °C 30.4 °F /  -0.9 °C 29.9in /  1011.9hPa Calm     96% 0in /  0.0mm 0 W/m2
02:47 31.5 °F /  -0.3 °C 30.4 °F /  -0.9 °C 29.9in /  1011.9hPa Calm     96% 0in /  0.0mm 0 W/m2
02:52 31.5 °F /  -0.3 °C 30.4 °F /  -0.9 °C 29.9in /  1011.9hPa Calm     96% 0in /  0.0mm 0 W/m2
02:57 31.5 °F /  -0.3 °C 30.4 °F /  -0.9 °C 29.9in /  1012.2hPa Calm     96% 0in /  0.0mm 0 W/m2
03:02 31.5 °F /  -0.3 °C 30.4 °F /  -0.9 °C 29.9in /  1012.2hPa Calm     96% 0in /  0.0mm 0 W/m2
03:07 31.5 °F /  -0.3 °C 30.4 °F /  -0.9 °C 29.9in /  1011.9hPa Calm     96% 0in /  0.0mm 0 W/m2
03:12 31.6 °F /  -0.2 °C 30.6 °F /  -0.8 °C 29.9in /  1011.9hPa Calm     96% 0in /  0.0mm 0 W/m2
03:17 31.6 °F /  -0.2 °C 30.6 °F /  -0.8 °C 29.9in /  1011.9hPa Calm     96% 0in /  0.0mm 0 W/m2
03:22 31.8 °F /  -0.1 °C 30.7 °F /  -0.7 °C 29.9in /  1011.9hPa Calm     96% 0in /  0.0mm 0 W/m2
03:27 31.8 °F /  -0.1 °C 30.7 °F /  -0.7 °C 29.9in /  1011.9hPa Calm     96% 0in /  0.0mm 0 W/m2
03:32 32.2 °F /  0.1 °C 31.1 °F /  -0.5 °C 29.9in /  1011.9hPa Calm     96% 0in /  0.0mm 0 W/m2
03:37 32.2 °F /  0.1 °C 31.1 °F /  -0.5 °C 29.9in /  1011.9hPa Calm     96% 0in /  0.0mm 0 W/m2
03:42 32.2 °F /  0.1 °C 31.1 °F /  -0.5 °C 29.9in /  1011.5hPa Calm     96% 0in /  0.0mm 0 W/m2
03:47 32.4 °F /  0.2 °C 31.3 °F /  -0.4 °C 29.9in /  1011.5hPa Calm     96% 0in /  0.0mm 0 W/m2
03:52 32.4 °F /  0.2 °C 31.3 °F /  -0.4 °C 29.9in /  1011.5hPa Calm     96% 0in /  0.0mm 0 W/m2
03:57 32.4 °F /  0.2 °C 31.3 °F /  -0.4 °C 29.9in /  1011.5hPa Calm     96% 0in /  0.0mm 0 W/m2
04:02 32.4 °F /  0.2 °C 31.3 °F /  -0.4 °C 29.9in /  1011.5hPa Calm     96% 0in /  0.0mm 0 W/m2
04:07 32.4 °F /  0.2 °C 31.3 °F /  -0.4 °C 29.9in /  1011.5hPa Calm     96% 0in /  0.0mm 0 W/m2
04:12 32.5 °F /  0.3 °C 31.5 °F /  -0.3 °C 29.9in /  1011.2hPa Calm     96% 0in /  0.0mm 0 W/m2
04:17 32.5 °F /  0.3 °C 31.5 °F /  -0.3 °C 29.9in /  1011.2hPa Calm   1mph /  1.6km/h 96% 0in /  0.0mm 0 W/m2
04:23 32.5 °F /  0.3 °C 31.5 °F /  -0.3 °C 29.9in /  1011.2hPa Calm     96% 0in /  0.0mm 0 W/m2
04:28 32.5 °F /  0.3 °C 31.5 °F /  -0.3 °C 29.9in /  1011.2hPa Calm   1mph /  1.6km/h 96% 0in /  0.0mm 0 W/m2
04:33 32.5 °F /  0.3 °C 31.5 °F /  -0.3 °C 29.9in /  1011.2hPa Calm     96% 0in /  0.0mm 0 W/m2
04:38 32.5 °F /  0.3 °C 31.5 °F /  -0.3 °C 29.9in /  1011.2hPa Calm     96% 0in /  0.0mm 0 W/m2
04:43 32.7 °F /  0.4 °C 31.6 °F /  -0.2 °C 29.9in /  1011.2hPa Calm     96% 0in /  0.0mm 0 W/m2
04:48 32.7 °F /  0.4 °C 31.6 °F /  -0.2 °C 29.9in /  1011.2hPa Calm   1mph /  1.6km/h 96% 0in /  0.0mm 0 W/m2
04:53 32.7 °F /  0.4 °C 31.6 °F /  -0.2 °C 29.9in /  1011.2hPa Calm     96% 0in /  0.0mm 0 W/m2
04:58 32.7 °F /  0.4 °C 31.6 °F /  -0.2 °C 29.9in /  1011.2hPa Calm   1mph /  1.6km/h 96% 0in /  0.0mm 0 W/m2
05:03 32.9 °F /  0.5 °C 31.8 °F /  -0.1 °C 29.9in /  1011.2hPa Calm     96% 0in /  0.0mm 0 W/m2
05:08 33.1 °F /  0.6 °C 32 °F /  0 °C 29.9in /  1011.2hPa Calm     96% 0in /  0.0mm 0 W/m2
05:13 33.1 °F /  0.6 °C 32 °F /  0 °C 29.9in /  1011.2hPa Calm     96% 0in /  0.0mm 0 W/m2
05:18 33.3 °F /  0.7 °C 32.2 °F /  0.1 °C 29.9in /  1011.2hPa Calm     96% 0in /  0.0mm 0 W/m2
05:23 33.4 °F /  0.8 °C 32.4 °F /  0.2 °C 29.9in /  1011.2hPa Calm     96% 0in /  0.0mm 0 W/m2
05:28 33.4 °F /  0.8 °C 32.4 °F /  0.2 °C 29.9in /  1011.2hPa Calm     96% 0in /  0.0mm 0 W/m2
05:33 33.6 °F /  0.9 °C 32.5 °F /  0.3 °C 29.9in /  1011.2hPa Calm   1mph /  1.6km/h 96% 0in /  0.0mm 0 W/m2
05:38 33.8 °F /  1 °C 32.7 °F /  0.4 °C 29.9in /  1011.2hPa Calm     96% 0in /  0.0mm 0 W/m2
05:43 34 °F /  1.1 °C 32.9 °F /  0.5 °C 29.9in /  1011.2hPa Calm   1mph /  1.6km/h 96% 0in /  0.0mm 0 W/m2
05:48 34.2 °F /  1.2 °C 33.1 °F /  0.6 °C 29.9in /  1011.2hPa Calm     96% 0in /  0.0mm 0 W/m2
05:58 34.2 °F /  1.2 °C 33.1 °F /  0.6 °C 29.9in /  1010.8hPa Calm     96% 0in /  0.0mm 0 W/m2
06:03 34.3 °F /  1.3 °C 33.3 °F /  0.7 °C 29.9in /  1011.2hPa Calm     96% 0in /  0.0mm 0 W/m2
06:08 34.3 °F /  1.3 °C 33.1 °F /  0.6 °C 29.9in /  1011.2hPa Calm     95% 0in /  0.0mm 0 W/m2
06:13 34.3 °F /  1.3 °C 33.1 °F /  0.6 °C 29.9in /  1011.2hPa Calm     95% 0in /  0.0mm 0 W/m2
06:18 34.3 °F /  1.3 °C 33.1 °F /  0.6 °C 29.9in /  1011.2hPa Calm     95% 0in /  0.0mm 0 W/m2
06:23 34.3 °F /  1.3 °C 33.1 °F /  0.6 °C 29.9in /  1010.8hPa Calm     95% 0in /  0.0mm 0 W/m2
06:28 34.3 °F /  1.3 °C 33.1 °F /  0.6 °C 29.9in /  1010.8hPa Calm     95% 0in /  0.0mm 0 W/m2
06:33 34.5 °F /  1.4 °C 33.3 °F /  0.7 °C 29.9in /  1010.8hPa Calm     95% 0in /  0.0mm 0 W/m2
06:38 34.5 °F /  1.4 °C 33.3 °F /  0.7 °C 29.9in /  1010.8hPa Calm     95% 0in /  0.0mm 0 W/m2
06:43 34.5 °F /  1.4 °C 33.3 °F /  0.7 °C 29.9in /  1010.8hPa Calm     95% 0in /  0.0mm 0 W/m2
06:48 34.5 °F /  1.4 °C 32.9 °F /  0.5 °C 29.9in /  1010.8hPa Calm     94% 0in /  0.0mm 0 W/m2
06:53 34.5 °F /  1.4 °C 32.9 °F /  0.5 °C 29.9in /  1010.8hPa Calm     94% 0in /  0.0mm 0 W/m2
06:58 34.5 °F /  1.4 °C 32.9 °F /  0.5 °C 29.9in /  1010.8hPa Calm     94% 0in /  0.0mm 0 W/m2
07:03 34.7 °F /  1.5 °C 33.1 °F /  0.6 °C 29.9in /  1010.8hPa Calm     94% 0in /  0.0mm 0 W/m2
07:08 34.7 °F /  1.5 °C 33.1 °F /  0.6 °C 29.9in /  1010.8hPa Calm     94% 0in /  0.0mm 0 W/m2
07:13 34.9 °F /  1.6 °C 33.3 °F /  0.7 °C 29.9in /  1010.8hPa Calm     94% 0in /  0.0mm 0 W/m2
07:18 34.9 °F /  1.6 °C 33.1 °F /  0.6 °C 29.9in /  1010.8hPa Calm     93% 0in /  0.0mm 0 W/m2
07:23 34.9 °F /  1.6 °C 33.1 °F /  0.6 °C 29.9in /  1010.8hPa Calm     93% 0in /  0.0mm 0 W/m2
07:28 34.9 °F /  1.6 °C 33.1 °F /  0.6 °C 29.9in /  1010.8hPa Calm     93% 0in /  0.0mm 0 W/m2
07:33 35.1 °F /  1.7 °C 33.3 °F /  0.7 °C 29.9in /  1010.8hPa Calm     93% 0in /  0.0mm 0 W/m2
07:38 35.1 °F /  1.7 °C 32.9 °F /  0.5 °C 29.9in /  1010.8hPa Calm     92% 0in /  0.0mm 0 W/m2
07:43 35.2 °F /  1.8 °C 33.1 °F /  0.6 °C 29.9in /  1010.8hPa Calm   1mph /  1.6km/h 92% 0in /  0.0mm 0 W/m2
07:48 35.2 °F /  1.8 °C 33.1 °F /  0.6 °C 29.9in /  1011.2hPa Calm     92% 0in /  0.0mm 0 W/m2
07:53 35.2 °F /  1.8 °C 32.9 °F /  0.5 °C 29.9in /  1011.2hPa Calm   2mph /  3.2km/h 91% 0in /  0.0mm 0 W/m2
07:58 35.2 °F /  1.8 °C 32.9 °F /  0.5 °C 29.9in /  1011.2hPa Calm     91% 0in /  0.0mm 0 W/m2
08:03 35.2 °F /  1.8 °C 32.9 °F /  0.5 °C 29.9in /  1011.2hPa Calm     91% 0in /  0.0mm 0 W/m2
08:08 35.4 °F /  1.9 °C 33.1 °F /  0.6 °C 29.9in /  1011.2hPa Calm     91% 0in /  0.0mm 0 W/m2
08:13 35.4 °F /  1.9 °C 33.1 °F /  0.6 °C 29.9in /  1011.2hPa Calm     91% 0in /  0.0mm 0 W/m2
08:18 35.4 °F /  1.9 °C 32.7 °F /  0.4 °C 29.9in /  1011.2hPa SE 1mph /  1.6km/h 1mph /  1.6km/h 90% 0in /  0.0mm 5 W/m2
08:23 35.6 °F /  2 °C 32.9 °F /  0.5 °C 29.9in /  1011.2hPa Calm     90% 0in /  0.0mm 5 W/m2
08:28 35.8 °F /  2.1 °C 33.1 °F /  0.6 °C 29.9in /  1011.2hPa Calm   1mph /  1.6km/h 90% 0in /  0.0mm 7 W/m2
08:33 36 °F /  2.2 °C 33.3 °F /  0.7 °C 29.9in /  1011.2hPa Calm   1mph /  1.6km/h 90% 0in /  0.0mm 9 W/m2
08:38 36 °F /  2.2 °C 33.1 °F /  0.6 °C 29.9in /  1011.2hPa Calm     89% 0in /  0.0mm 11 W/m2
08:43 36 °F /  2.2 °C 33.1 °F /  0.6 °C 29.9in /  1011.2hPa NW 2mph /  3.2km/h 2mph /  3.2km/h 89% 0in /  0.0mm 12 W/m2
08:48 36.1 °F /  2.3 °C 33.3 °F /  0.7 °C 29.9in /  1011.2hPa Calm     89% 0in /  0.0mm 18 W/m2
08:53 36.1 °F /  2.3 °C 32.9 °F /  0.5 °C 29.9in /  1011.2hPa WNW 0.9mph /  1.4km/h 2mph /  3.2km/h 88% 0in /  0.0mm 18 W/m2
08:58 36.3 °F /  2.4 °C 33.1 °F /  0.6 °C 29.9in /  1011.5hPa WNW 0.9mph /  1.4km/h 2mph /  3.2km/h 88% 0in /  0.0mm 16 W/m2
09:03 36.3 °F /  2.4 °C 32.9 °F /  0.5 °C 29.9in /  1011.5hPa Calm     87% 0in /  0.0mm 23 W/m2
09:08 36.5 °F /  2.5 °C 33.1 °F /  0.6 °C 29.9in /  1011.5hPa Calm   3mph /  4.8km/h 87% 0in /  0.0mm 26 W/m2
09:13 36.7 °F /  2.6 °C 33.3 °F /  0.7 °C 29.9in /  1011.5hPa NNW 2mph /  3.2km/h 3mph /  4.8km/h 87% 0in /  0.0mm 32 W/m2
09:18 36.7 °F /  2.6 °C 32.9 °F /  0.5 °C 29.9in /  1011.5hPa Calm   1mph /  1.6km/h 86% 0in /  0.0mm 30 W/m2
09:23 36.9 °F /  2.7 °C 33.1 °F /  0.6 °C 29.9in /  1011.5hPa Calm   3mph /  4.8km/h 86% 0in /  0.0mm 35 W/m2
09:28 36.9 °F /  2.7 °C 33.1 °F /  0.6 °C 29.9in /  1011.5hPa NW 0.9mph /  1.4km/h 5mph /  8km/h 86% 0in /  0.0mm 32 W/m2
09:33 37 °F /  2.8 °C 32.9 °F /  0.5 °C 29.9in /  1011.5hPa Calm   2mph /  3.2km/h 85% 0in /  0.0mm 28 W/m2
09:38 37 °F /  2.8 °C 32.9 °F /  0.5 °C 29.9in /  1011.9hPa Calm   5mph /  8km/h 85% 0in /  0.0mm 32 W/m2
09:43 37 °F /  2.8 °C 32.9 °F /  0.5 °C 29.9in /  1011.9hPa Calm     85% 0in /  0.0mm 33 W/m2
09:48 37 °F /  2.8 °C 32.9 °F /  0.5 °C 29.9in /  1011.9hPa Calm   2mph /  3.2km/h 85% 0in /  0.0mm 30 W/m2
09:53 37 °F /  2.8 °C 32.7 °F /  0.4 °C 29.9in /  1011.9hPa Calm   2mph /  3.2km/h 84% 0in /  0.0mm 32 W/m2
09:58 37.2 °F /  2.9 °C 32.9 °F /  0.5 °C 29.9in /  1011.9hPa NNW 0.9mph /  1.4km/h 1mph /  1.6km/h 84% 0in /  0.0mm 28 W/m2
10:03 37.2 °F /  2.9 °C 32.9 °F /  0.5 °C 29.9in /  1011.9hPa Calm   1mph /  1.6km/h 84% 0in /  0.0mm 28 W/m2
10:08 37.2 °F /  2.9 °C 32.5 °F /  0.3 °C 29.9in /  1011.9hPa Calm   2mph /  3.2km/h 83% 0in /  0.0mm 28 W/m2
10:13 37.2 °F /  2.9 °C 32.9 °F /  0.5 °C 29.9in /  1011.9hPa Calm   2mph /  3.2km/h 84% 0in /  0.0mm 35 W/m2
10:18 37.2 °F /  2.9 °C 32.5 °F /  0.3 °C 29.9in /  1011.5hPa Calm   2mph /  3.2km/h 83% 0in /  0.0mm 44 W/m2
10:23 37.4 °F /  3 °C 33.1 °F /  0.6 °C 29.9in /  1011.5hPa NW 2mph /  3.2km/h 3mph /  4.8km/h 84% 0in /  0.0mm 54 W/m2
10:28 37.4 °F /  3 °C 32.7 °F /  0.4 °C 29.9in /  1011.5hPa NNW 0.9mph /  1.4km/h 2mph /  3.2km/h 83% 0in /  0.0mm 70 W/m2
10:33 37.6 °F /  3.1 °C 32.9 °F /  0.5 °C 29.9in /  1011.5hPa NNW 2.9mph /  4.7km/h 4mph /  6.4km/h 83% 0in /  0.0mm 70 W/m2
10:38 37.6 °F /  3.1 °C 32.5 °F /  0.3 °C 29.9in /  1011.5hPa Calm   1mph /  1.6km/h 82% 0in /  0.0mm 70 W/m2
10:43 37.6 °F /  3.1 °C 32.5 °F /  0.3 °C 29.9in /  1011.5hPa Calm   3mph /  4.8km/h 82% 0in /  0.0mm 74 W/m2
10:48 37.8 °F /  3.2 °C 32.7 °F /  0.4 °C 29.9in /  1011.5hPa NNW 0.9mph /  1.4km/h 3mph /  4.8km/h 82% 0in /  0.0mm 83 W/m2
10:53 37.8 °F /  3.2 °C 32.7 °F /  0.4 °C 29.9in /  1011.5hPa NNE 2mph /  3.2km/h 2mph /  3.2km/h 82% 0in /  0.0mm 88 W/m2
10:58 37.9 °F /  3.3 °C 32.9 °F /  0.5 °C 29.9in /  1011.5hPa NE 2mph /  3.2km/h 2mph /  3.2km/h 82% 0in /  0.0mm 91 W/m2
11:03 37.9 °F /  3.3 °C 32.7 °F /  0.4 °C 29.9in /  1011.5hPa NNW 0.9mph /  1.4km/h 2mph /  3.2km/h 81% 0in /  0.0mm 86 W/m2
11:13 37.9 °F /  3.3 °C 32.7 °F /  0.4 °C 29.9in /  1011.5hPa NW 2.9mph /  4.7km/h 4mph /  6.4km/h 81% 0in /  0.0mm 65 W/m2
11:18 37.9 °F /  3.3 °C 32.7 °F /  0.4 °C 29.9in /  1011.5hPa Calm   2mph /  3.2km/h 81% 0in /  0.0mm 67 W/m2
11:23 37.9 °F /  3.3 °C 32.7 °F /  0.4 °C 29.9in /  1011.5hPa West 7mph /  11.3km/h 7mph /  11.3km/h 81% 0in /  0.0mm 72 W/m2
11:28 37.9 °F /  3.3 °C 32.4 °F /  0.2 °C 29.9in /  1011.5hPa NW 2.9mph /  4.7km/h 3mph /  4.8km/h 80% 0in /  0.0mm 79 W/m2
11:33 37.9 °F /  3.3 °C 32.4 °F /  0.2 °C 29.9in /  1011.5hPa NW 0.9mph /  1.4km/h 7mph /  11.3km/h 80% 0in /  0.0mm 84 W/m2
11:38 37.9 °F /  3.3 °C 32.7 °F /  0.4 °C 29.9in /  1011.5hPa NW 2mph /  3.2km/h 3mph /  4.8km/h 81% 0in /  0.0mm 100 W/m2
11:43 37.9 °F /  3.3 °C 32.4 °F /  0.2 °C 29.9in /  1011.5hPa ENE 0.9mph /  1.4km/h 5mph /  8km/h 80% 0in /  0.0mm 114 W/m2
11:48 37.9 °F /  3.3 °C 32.4 °F /  0.2 °C 29.9in /  1011.5hPa NNW 0.9mph /  1.4km/h 2mph /  3.2km/h 80% 0in /  0.0mm 91 W/m2
11:53 37.9 °F /  3.3 °C 32.4 °F /  0.2 °C 29.9in /  1011.5hPa WNW 0.9mph /  1.4km/h 4mph /  6.4km/h 80% 0in /  0.0mm 114 W/m2
11:58 37.9 °F /  3.3 °C 32 °F /  0 °C 29.9in /  1011.5hPa West 2.9mph /  4.7km/h 7mph /  11.3km/h 79% 0in /  0.0mm 88 W/m2
12:03 37.9 °F /  3.3 °C 32 °F /  0 °C 29.9in /  1011.5hPa NNW 2.9mph /  4.7km/h 4mph /  6.4km/h 79% 0in /  0.0mm 100 W/m2
12:08 37.9 °F /  3.3 °C 32 °F /  0 °C 29.9in /  1011.5hPa East 0.9mph /  1.4km/h 5mph /  8km/h 79% 0in /  0.0mm 111 W/m2
12:13 37.9 °F /  3.3 °C 32 °F /  0 °C 29.9in /  1011.5hPa NNE 2.9mph /  4.7km/h 4mph /  6.4km/h 79% 0in /  0.0mm 130 W/m2
12:18 38.1 °F /  3.4 °C 32.2 °F /  0.1 °C 29.9in /  1011.2hPa West 0.9mph /  1.4km/h 5mph /  8km/h 79% 0in /  0.0mm 118 W/m2
12:23 38.1 °F /  3.4 °C 32.2 °F /  0.1 °C 29.9in /  1011.2hPa North 2mph /  3.2km/h 4mph /  6.4km/h 79% 0in /  0.0mm 111 W/m2
12:28 38.1 °F /  3.4 °C 32.2 °F /  0.1 °C 29.9in /  1011.2hPa WNW 0.9mph /  1.4km/h 10mph /  16.1km/h 79% 0in /  0.0mm 125 W/m2
12:33 38.3 °F /  3.5 °C 32.4 °F /  0.2 °C 29.9in /  1011.2hPa WNW 2.9mph /  4.7km/h 3mph /  4.8km/h 79% 0in /  0.0mm 130 W/m2
12:38 38.5 °F /  3.6 °C 32.5 °F /  0.3 °C 29.9in /  1011.2hPa Calm   10mph /  16.1km/h 79% 0in /  0.0mm 137 W/m2
12:43 38.5 °F /  3.6 °C 32.2 °F /  0.1 °C 29.9in /  1011.2hPa WNW 0.9mph /  1.4km/h 3mph /  4.8km/h 78% 0in /  0.0mm 123 W/m2
12:48 38.7 °F /  3.7 °C 32.4 °F /  0.2 °C 29.9in /  1011.2hPa ENE 0.9mph /  1.4km/h 4mph /  6.4km/h 78% 0in /  0.0mm 127 W/m2
12:53 38.7 °F /  3.7 °C 32.4 °F /  0.2 °C 29.9in /  1011.2hPa Calm   4mph /  6.4km/h 78% 0in /  0.0mm 146 W/m2
12:58 38.8 °F /  3.8 °C 32.5 °F /  0.3 °C 29.9in /  1011.5hPa NW 2mph /  3.2km/h 4mph /  6.4km/h 78% 0in /  0.0mm 134 W/m2
13:03 38.8 °F /  3.8 °C 32.5 °F /  0.3 °C 29.9in /  1011.5hPa WNW 4.9mph /  7.9km/h 6mph /  9.7km/h 78% 0in /  0.0mm 151 W/m2
13:08 38.8 °F /  3.8 °C 32.5 °F /  0.3 °C 29.9in /  1011.2hPa NW 2.9mph /  4.7km/h 3mph /  4.8km/h 78% 0in /  0.0mm 142 W/m2
13:13 38.8 °F /  3.8 °C 32.5 °F /  0.3 °C 29.9in /  1011.2hPa North 2mph /  3.2km/h 5mph /  8km/h 78% 0in /  0.0mm 137 W/m2
13:18 39 °F /  3.9 °C 32.7 °F /  0.4 °C 29.9in /  1011.2hPa West 0.9mph /  1.4km/h 6mph /  9.7km/h 78% 0in /  0.0mm 121 W/m2
13:23 38.8 °F /  3.8 °C 32.2 °F /  0.1 °C 29.9in /  1011.2hPa North 0.9mph /  1.4km/h 3mph /  4.8km/h 77% 0in /  0.0mm 104 W/m2
13:28 38.8 °F /  3.8 °C 32.5 °F /  0.3 °C 29.9in /  1010.8hPa NNW 0.9mph /  1.4km/h 5mph /  8km/h 78% 0in /  0.0mm 104 W/m2
13:33 38.8 °F /  3.8 °C 32.2 °F /  0.1 °C 29.9in /  1010.8hPa WNW 2mph /  3.2km/h 2mph /  3.2km/h 77% 0in /  0.0mm 105 W/m2
13:38 38.8 °F /  3.8 °C 32.5 °F /  0.3 °C 29.9in /  1010.8hPa Calm   4mph /  6.4km/h 78% 0in /  0.0mm 100 W/m2
13:43 38.8 °F /  3.8 °C 32.5 °F /  0.3 °C 29.8in /  1010.5hPa Calm   2mph /  3.2km/h 78% 0in /  0.0mm 93 W/m2
13:48 38.8 °F /  3.8 °C 32.2 °F /  0.1 °C 29.8in /  1010.5hPa NNW 0.9mph /  1.4km/h 1mph /  1.6km/h 77% 0in /  0.0mm 98 W/m2
13:53 39 °F /  3.9 °C 32.7 °F /  0.4 °C 29.8in /  1010.5hPa ENE 2mph /  3.2km/h 3mph /  4.8km/h 78% 0in /  0.0mm 102 W/m2
13:59 39 °F /  3.9 °C 32.7 °F /  0.4 °C 29.8in /  1010.5hPa North 0.9mph /  1.4km/h 3mph /  4.8km/h 78% 0in /  0.0mm 93 W/m2
14:04 39.2 °F /  4 °C 32.5 °F /  0.3 °C 29.8in /  1010.5hPa Calm   2mph /  3.2km/h 77% 0in /  0.0mm 95 W/m2
14:09 39.4 °F /  4.1 °C 32.7 °F /  0.4 °C 29.8in /  1010.5hPa East 0.9mph /  1.4km/h 2mph /  3.2km/h 77% 0in /  0.0mm 93 W/m2
14:14 39.4 °F /  4.1 °C 32.7 °F /  0.4 °C 29.9in /  1010.8hPa North 0.9mph /  1.4km/h 5mph /  8km/h 77% 0in /  0.0mm 97 W/m2
14:19 39.4 °F /  4.1 °C 32.7 °F /  0.4 °C 29.8in /  1010.5hPa WNW 0.9mph /  1.4km/h 4mph /  6.4km/h 77% 0in /  0.0mm 90 W/m2
14:24 39.6 °F /  4.2 °C 32.9 °F /  0.5 °C 29.8in /  1010.5hPa NNW 0.9mph /  1.4km/h 5mph /  8km/h 77% 0in /  0.0mm 90 W/m2
14:29 39.6 °F /  4.2 °C 32.9 °F /  0.5 °C 29.9in /  1010.8hPa NNW 2mph /  3.2km/h 4mph /  6.4km/h 77% 0in /  0.0mm 84 W/m2
14:34 39.6 °F /  4.2 °C 32.9 °F /  0.5 °C 29.8in /  1010.5hPa NNW 2mph /  3.2km/h 2mph /  3.2km/h 77% 0in /  0.0mm 77 W/m2
14:44 39.6 °F /  4.2 °C 32.9 °F /  0.5 °C 29.8in /  1010.5hPa North 2mph /  3.2km/h 4mph /  6.4km/h 77% 0in /  0.0mm 65 W/m2
14:49 39.6 °F /  4.2 °C 32.9 °F /  0.5 °C 29.8in /  1010.5hPa Calm   2mph /  3.2km/h 77% 0in /  0.0mm 56 W/m2
14:54 39.6 °F /  4.2 °C 32.9 °F /  0.5 °C 29.8in /  1010.5hPa Calm     77% 0in /  0.0mm 53 W/m2
14:59 39.4 °F /  4.1 °C 32.7 °F /  0.4 °C 29.8in /  1010.5hPa NNW 0.9mph /  1.4km/h 2mph /  3.2km/h 77% 0in /  0.0mm 49 W/m2
15:04 39.4 °F /  4.1 °C 33.1 °F /  0.6 °C 29.8in /  1010.5hPa Calm   1mph /  1.6km/h 78% 0in /  0.0mm 46 W/m2
15:09 39.2 °F /  4 °C 32.9 °F /  0.5 °C 29.8in /  1010.5hPa Calm   1mph /  1.6km/h 78% 0in /  0.0mm 42 W/m2
15:14 39.2 °F /  4 °C 32.9 °F /  0.5 °C 29.8in /  1010.5hPa Calm   1mph /  1.6km/h 78% 0in /  0.0mm 40 W/m2
15:19 39 °F /  3.9 °C 32.7 °F /  0.4 °C 29.8in /  1010.5hPa Calm     78% 0in /  0.0mm 39 W/m2
15:24 39 °F /  3.9 °C 33.1 °F /  0.6 °C 29.8in /  1010.5hPa Calm   2mph /  3.2km/h 79% 0in /  0.0mm 35 W/m2
15:29 38.8 °F /  3.8 °C 32.9 °F /  0.5 °C 29.8in /  1010.5hPa Calm     79% 0in /  0.0mm 35 W/m2
15:34 38.8 °F /  3.8 °C 33.3 °F /  0.7 °C 29.8in /  1010.5hPa Calm   2mph /  3.2km/h 80% 0in /  0.0mm 33 W/m2
15:39 38.7 °F /  3.7 °C 33.1 °F /  0.6 °C 29.9in /  1010.8hPa East 0.9mph /  1.4km/h 1mph /  1.6km/h 80% 0in /  0.0mm 30 W/m2
15:44 38.5 °F /  3.6 °C 33.1 °F /  0.6 °C 29.9in /  1010.8hPa Calm     81% 0in /  0.0mm 30 W/m2
15:49 38.3 °F /  3.5 °C 32.9 °F /  0.5 °C 29.8in /  1010.5hPa Calm     81% 0in /  0.0mm 30 W/m2
15:54 38.1 °F /  3.4 °C 33.1 °F /  0.6 °C 29.9in /  1010.8hPa Calm     82% 0in /  0.0mm 30 W/m2
16:04 37.8 °F /  3.2 °C 32.7 °F /  0.4 °C 29.8in /  1010.5hPa Calm     82% 0in /  0.0mm 26 W/m2
16:09 37.6 °F /  3.1 °C 32.9 °F /  0.5 °C 29.9in /  1010.8hPa Calm     83% 0in /  0.0mm 23 W/m2
16:14 37.6 °F /  3.1 °C 32.9 °F /  0.5 °C 29.9in /  1010.8hPa Calm     83% 0in /  0.0mm 21 W/m2
16:19 37.2 °F /  2.9 °C 32.5 °F /  0.3 °C 29.9in /  1010.8hPa Calm     83% 0in /  0.0mm 19 W/m2
16:24 37 °F /  2.8 °C 32.4 °F /  0.2 °C 29.9in /  1010.8hPa Calm     83% 0in /  0.0mm 16 W/m2
16:29 36.9 °F /  2.7 °C 32.2 °F /  0.1 °C 29.9in /  1010.8hPa Calm     83% 0in /  0.0mm 11 W/m2
16:34 36.9 °F /  2.7 °C 32.5 °F /  0.3 °C 29.9in /  1010.8hPa Calm     84% 0in /  0.0mm 9 W/m2
16:39 36.5 °F /  2.5 °C 32.2 °F /  0.1 °C 29.9in /  1010.8hPa Calm     84% 0in /  0.0mm 5 W/m2
16:44 36.3 °F /  2.4 °C 32.2 °F /  0.1 °C 29.9in /  1010.8hPa Calm   1mph /  1.6km/h 85% 0in /  0.0mm 5 W/m2
16:49 36.1 °F /  2.3 °C 32 °F /  0 °C 29.9in /  1010.8hPa Calm     85% 0in /  0.0mm 0 W/m2
16:54 36 °F /  2.2 °C 32.2 °F /  0.1 °C 29.9in /  1010.8hPa Calm     86% 0in /  0.0mm 0 W/m2
16:59 36 °F /  2.2 °C 32.2 °F /  0.1 °C 29.9in /  1010.8hPa Calm     86% 0in /  0.0mm 0 W/m2
17:09 36 °F /  2.2 °C 32.5 °F /  0.3 °C 29.9in /  1010.8hPa Calm     87% 0in /  0.0mm 0 W/m2
17:14 36.1 °F /  2.3 °C 32.7 °F /  0.4 °C 29.9in /  1010.8hPa Calm     87% 0in /  0.0mm 0 W/m2
17:19 36.1 °F /  2.3 °C 32.7 °F /  0.4 °C 29.9in /  1010.8hPa Calm     87% 0in /  0.0mm 0 W/m2
17:24 36.1 °F /  2.3 °C 32.7 °F /  0.4 °C 29.9in /  1010.8hPa Calm     87% 0in /  0.0mm 0 W/m2
17:29 36.1 °F /  2.3 °C 32.7 °F /  0.4 °C 29.9in /  1010.8hPa Calm     87% 0in /  0.0mm 0 W/m2
17:34 36.3 °F /  2.4 °C 32.9 °F /  0.5 °C 29.8in /  1010.5hPa Calm     87% 0in /  0.0mm 0 W/m2
17:39 36.3 °F /  2.4 °C 32.9 °F /  0.5 °C 29.8in /  1010.5hPa Calm     87% 0in /  0.0mm 0 W/m2
17:44 36.5 °F /  2.5 °C 32.7 °F /  0.4 °C 29.8in /  1010.5hPa Calm     86% 0in /  0.0mm 0 W/m2
17:49 36.5 °F /  2.5 °C 32.7 °F /  0.4 °C 29.8in /  1010.5hPa Calm     86% 0in /  0.0mm 0 W/m2
17:54 36.5 °F /  2.5 °C 33.1 °F /  0.6 °C 29.9in /  1010.8hPa Calm     87% 0in /  0.0mm 0 W/m2
17:59 36.5 °F /  2.5 °C 32.7 °F /  0.4 °C 29.9in /  1010.8hPa Calm     86% 0in /  0.0mm 0 W/m2
18:04 36.3 °F /  2.4 °C 32.5 °F /  0.3 °C 29.9in /  1010.8hPa Calm     86% 0in /  0.0mm 0 W/m2
18:09 36.3 °F /  2.4 °C 32.5 °F /  0.3 °C 29.9in /  1010.8hPa Calm     86% 0in /  0.0mm 0 W/m2
18:14 36.3 °F /  2.4 °C 32.5 °F /  0.3 °C 29.9in /  1010.8hPa Calm     86% 0in /  0.0mm 0 W/m2
18:19 36.1 °F /  2.3 °C 32.7 °F /  0.4 °C 29.9in /  1010.8hPa Calm     87% 0in /  0.0mm 0 W/m2
18:24 36.1 °F /  2.3 °C 32.7 °F /  0.4 °C 29.9in /  1010.8hPa Calm     87% 0in /  0.0mm 0 W/m2
18:29 36.1 °F /  2.3 °C 32.7 °F /  0.4 °C 29.9in /  1010.8hPa Calm     87% 0in /  0.0mm 0 W/m2
18:34 36.1 °F /  2.3 °C 32.7 °F /  0.4 °C 29.9in /  1010.8hPa Calm     87% 0in /  0.0mm 0 W/m2
18:39 36.3 °F /  2.4 °C 32.9 °F /  0.5 °C 29.9in /  1010.8hPa Calm     87% 0in /  0.0mm 0 W/m2
18:44 36.3 °F /  2.4 °C 33.1 °F /  0.6 °C 29.9in /  1010.8hPa Calm     88% 0in /  0.0mm 0 W/m2
18:49 36.5 °F /  2.5 °C 33.3 °F /  0.7 °C 29.9in /  1010.8hPa Calm     88% 0in /  0.0mm 0 W/m2
18:54 36.7 °F /  2.6 °C 33.4 °F /  0.8 °C 29.9in /  1010.8hPa Calm     88% 0in /  0.0mm 0 W/m2
18:59 36.9 °F /  2.7 °C 33.6 °F /  0.9 °C 29.9in /  1010.8hPa Calm     88% 0in /  0.0mm 0 W/m2
19:04 36.9 °F /  2.7 °C 33.6 °F /  0.9 °C 29.9in /  1010.8hPa Calm     88% 0in /  0.0mm 0 W/m2
19:09 36.9 °F /  2.7 °C 33.6 °F /  0.9 °C 29.9in /  1010.8hPa Calm     88% 0in /  0.0mm 0 W/m2
19:14 37 °F /  2.8 °C 33.8 °F /  1 °C 29.9in /  1010.8hPa East 1mph /  1.6km/h 1mph /  1.6km/h 88% 0in /  0.0mm 0 W/m2
19:19 37.2 °F /  2.9 °C 34 °F /  1.1 °C 29.9in /  1010.8hPa East 2mph /  3.2km/h 2mph /  3.2km/h 88% 0in /  0.0mm 0 W/m2
19:24 37.4 °F /  3 °C 33.8 °F /  1 °C 29.9in /  1010.8hPa Calm   1mph /  1.6km/h 87% 0in /  0.0mm 0 W/m2
19:29 37.4 °F /  3 °C 33.8 °F /  1 °C 29.9in /  1010.8hPa Calm     87% 0in /  0.0mm 0 W/m2
19:34 37.6 °F /  3.1 °C 34 °F /  1.1 °C 29.9in /  1010.8hPa Calm     87% 0in /  0.0mm 0 W/m2
19:39 37.6 °F /  3.1 °C 34 °F /  1.1 °C 29.9in /  1010.8hPa Calm     87% 0in /  0.0mm 0 W/m2
19:44 37.6 °F /  3.1 °C 34 °F /  1.1 °C 29.9in /  1010.8hPa Calm     87% 0in /  0.0mm 0 W/m2
19:49 37.6 °F /  3.1 °C 34 °F /  1.1 °C 29.9in /  1010.8hPa Calm     87% 0in /  0.0mm 0 W/m2
19:54 37.6 °F /  3.1 °C 34 °F /  1.1 °C 29.9in /  1010.8hPa Calm     87% 0in /  0.0mm 0 W/m2
19:59 37.6 °F /  3.1 °C 34 °F /  1.1 °C 29.9in /  1010.8hPa Calm     87% 0in /  0.0mm 0 W/m2
20:04 37.6 °F /  3.1 °C 34 °F /  1.1 °C 29.9in /  1010.8hPa Calm     87% 0in /  0.0mm 0 W/m2
20:09 37.6 °F /  3.1 °C 34 °F /  1.1 °C 29.9in /  1011.2hPa Calm     87% 0in /  0.0mm 0 W/m2
20:14 37.6 °F /  3.1 °C 34 °F /  1.1 °C 29.9in /  1010.8hPa Calm     87% 0in /  0.0mm 0 W/m2
20:19 37.6 °F /  3.1 °C 34 °F /  1.1 °C 29.9in /  1010.8hPa Calm     87% 0in /  0.0mm 0 W/m2
20:24 37.6 °F /  3.1 °C 34 °F /  1.1 °C 29.9in /  1010.8hPa Calm     87% 0in /  0.0mm 0 W/m2
20:29 37.6 °F /  3.1 °C 34 °F /  1.1 °C 29.9in /  1010.8hPa Calm     87% 0in /  0.0mm 0 W/m2
20:34 37.6 °F /  3.1 °C 34 °F /  1.1 °C 29.9in /  1010.8hPa Calm   1mph /  1.6km/h 87% 0in /  0.0mm 0 W/m2
20:39 37.8 °F /  3.2 °C 34.5 °F /  1.4 °C 29.9in /  1010.8hPa WNW 0.9mph /  1.4km/h 2mph /  3.2km/h 88% 0in /  0.0mm 0 W/m2
20:49 37.8 °F /  3.2 °C 34.2 °F /  1.2 °C 29.9in /  1010.8hPa Calm   1mph /  1.6km/h 87% 0in /  0.0mm 0 W/m2
20:54 37.8 °F /  3.2 °C 34.2 °F /  1.2 °C 29.9in /  1010.8hPa Calm     87% 0in /  0.0mm 0 W/m2
20:59 37.8 °F /  3.2 °C 34.2 °F /  1.2 °C 29.9in /  1010.8hPa Calm     87% 0in /  0.0mm 0 W/m2
21:04 37.8 °F /  3.2 °C 34.2 °F /  1.2 °C 29.9in /  1010.8hPa Calm   2mph /  3.2km/h 87% 0in /  0.0mm 0 W/m2
21:09 37.9 °F /  3.3 °C 34.3 °F /  1.3 °C 29.8in /  1010.5hPa Calm     87% 0in /  0.0mm 0 W/m2
21:15 37.9 °F /  3.3 °C 34.3 °F /  1.3 °C 29.9in /  1010.8hPa WNW 0.9mph /  1.4km/h 2mph /  3.2km/h 87% 0in /  0.0mm 0 W/m2
21:20 38.1 °F /  3.4 °C 34.3 °F /  1.3 °C 29.9in /  1010.8hPa Calm   1mph /  1.6km/h 86% 0in /  0.0mm 0 W/m2
21:25 38.1 °F /  3.4 °C 34.3 °F /  1.3 °C 29.8in /  1010.5hPa West 2mph /  3.2km/h 4mph /  6.4km/h 86% 0in /  0.0mm 0 W/m2
21:30 38.5 °F /  3.6 °C 34.7 °F /  1.5 °C 29.8in /  1010.5hPa Calm   3mph /  4.8km/h 86% 0in /  0.0mm 0 W/m2
21:35 38.5 °F /  3.6 °C 34.3 °F /  1.3 °C 29.8in /  1010.5hPa Calm   1mph /  1.6km/h 85% 0in /  0.0mm 0 W/m2
21:40 38.7 °F /  3.7 °C 34.5 °F /  1.4 °C 29.8in /  1010.5hPa Calm     85% 0in /  0.0mm 0 W/m2
21:45 38.7 °F /  3.7 °C 34.5 °F /  1.4 °C 29.8in /  1010.5hPa Calm     85% 0in /  0.0mm 0 W/m2
21:50 38.7 °F /  3.7 °C 34.5 °F /  1.4 °C 29.8in /  1010.5hPa Calm   1mph /  1.6km/h 85% 0in /  0.0mm 0 W/m2
21:55 38.7 °F /  3.7 °C 34.9 °F /  1.6 °C 29.8in /  1010.5hPa Calm     86% 0in /  0.0mm 0 W/m2
22:00 38.7 °F /  3.7 °C 34.9 °F /  1.6 °C 29.8in /  1010.5hPa Calm     86% 0in /  0.0mm 0 W/m2
22:05 38.7 °F /  3.7 °C 34.9 °F /  1.6 °C 29.8in /  1010.5hPa Calm     86% 0in /  0.0mm 0 W/m2
22:10 38.7 °F /  3.7 °C 34.9 °F /  1.6 °C 29.8in /  1010.5hPa WNW 0.9mph /  1.4km/h 2mph /  3.2km/h 86% 0in /  0.0mm 0 W/m2
22:15 38.5 °F /  3.6 °C 34.7 °F /  1.5 °C 29.8in /  1010.2hPa WNW 2mph /  3.2km/h 2mph /  3.2km/h 86% 0in /  0.0mm 0 W/m2
22:20 38.5 °F /  3.6 °C 34.7 °F /  1.5 °C 29.8in /  1010.2hPa Calm     86% 0in /  0.0mm 0 W/m2
22:25 38.5 °F /  3.6 °C 34.9 °F /  1.6 °C 29.8in /  1010.5hPa Calm   1mph /  1.6km/h 87% 0in /  0.0mm 0 W/m2
22:30 38.3 °F /  3.5 °C 34.7 °F /  1.5 °C 29.8in /  1010.5hPa Calm     87% 0in /  0.0mm 0 W/m2
22:35 38.3 °F /  3.5 °C 34.7 °F /  1.5 °C 29.8in /  1010.2hPa Calm     87% 0in /  0.0mm 0 W/m2
22:40 38.1 °F /  3.4 °C 34.5 °F /  1.4 °C 29.8in /  1010.2hPa Calm     87% 0in /  0.0mm 0 W/m2
22:45 38.1 °F /  3.4 °C 34.5 °F /  1.4 °C 29.8in /  1010.2hPa WNW 0.9mph /  1.4km/h 1mph /  1.6km/h 87% 0in /  0.0mm 0 W/m2
22:50 37.9 °F /  3.3 °C 34.3 °F /  1.3 °C 29.8in /  1010.2hPa Calm     87% 0in /  0.0mm 0 W/m2
22:55 37.9 °F /  3.3 °C 34.3 °F /  1.3 °C 29.8in /  1010.2hPa Calm     87% 0in /  0.0mm 0 W/m2
23:00 37.8 °F /  3.2 °C 34.2 °F /  1.2 °C 29.8in /  1010.2hPa Calm     87% 0in /  0.0mm 0 W/m2
23:05 37.4 °F /  3 °C 33.8 °F /  1 °C 29.8in /  1009.8hPa Calm     87% 0in /  0.0mm 0 W/m2
23:10 37 °F /  2.8 °C 33.6 °F /  0.9 °C 29.8in /  1009.8hPa Calm     87% 0in /  0.0mm 0 W/m2
23:15 36.9 °F /  2.7 °C 33.4 °F /  0.8 °C 29.8in /  1009.8hPa Calm     87% 0in /  0.0mm 0 W/m2
23:20 36.3 °F /  2.4 °C 33.1 °F /  0.6 °C 29.8in /  1009.8hPa Calm     88% 0in /  0.0mm 0 W/m2
23:25 36 °F /  2.2 °C 32.7 °F /  0.4 °C 29.8in /  1009.8hPa Calm     88% 0in /  0.0mm 0 W/m2
23:30 35.8 °F /  2.1 °C 32.5 °F /  0.3 °C 29.8in /  1009.8hPa Calm     88% 0in /  0.0mm 0 W/m2
23:35 35.2 °F /  1.8 °C 32.4 °F /  0.2 °C 29.8in /  1009.5hPa Calm     89% 0in /  0.0mm 0 W/m2
23:40 35.1 °F /  1.7 °C 32.2 °F /  0.1 °C 29.8in /  1009.5hPa Calm     89% 0in /  0.0mm 0 W/m2
23:45 34.5 °F /  1.4 °C 31.6 °F /  -0.2 °C 29.8in /  1009.5hPa Calm     89% 0in /  0.0mm 0 W/m2
23:50 34.3 °F /  1.3 °C 31.6 °F /  -0.2 °C 29.8in /  1009.5hPa Calm     90% 0in /  0.0mm 0 W/m2
23:55 34 °F /  1.1 °C 31.3 °F /  -0.4 °C 29.8in /  1009.5hPa Calm     90% 0in /  0.0mm 0 W/m2
Juneau County Weather
Compliments of Weather Underground - 4 mb